sensor_id;sensor_type;location;lat;lon;timestamp;temperature;humidity
18406;DHT22;9329;48.720;9.588;2022-07-18T00:00:45;18.40;85.80
18406;DHT22;9329;48.720;9.588;2022-07-18T00:03:12;18.20;87.60
18406;DHT22;9329;48.720;9.588;2022-07-18T00:05:39;18.40;89.60
18406;DHT22;9329;48.720;9.588;2022-07-18T00:08:07;18.70;89.90
18406;DHT22;9329;48.720;9.588;2022-07-18T00:10:34;19.00;89.70
18406;DHT22;9329;48.720;9.588;2022-07-18T00:13:01;18.40;89.60
18406;DHT22;9329;48.720;9.588;2022-07-18T00:15:29;18.20;90.50
18406;DHT22;9329;48.720;9.588;2022-07-18T00:17:56;18.50;87.50
18406;DHT22;9329;48.720;9.588;2022-07-18T00:20:23;18.50;85.90
18406;DHT22;9329;48.720;9.588;2022-07-18T00:22:50;18.40;85.20
18406;DHT22;9329;48.720;9.588;2022-07-18T00:25:17;18.40;86.20
18406;DHT22;9329;48.720;9.588;2022-07-18T00:27:44;18.40;87.20
18406;DHT22;9329;48.720;9.588;2022-07-18T00:30:11;18.20;87.70
18406;DHT22;9329;48.720;9.588;2022-07-18T00:32:40;18.60;87.30
18406;DHT22;9329;48.720;9.588;2022-07-18T00:35:08;18.70;88.20
18406;DHT22;9329;48.720;9.588;2022-07-18T00:37:35;18.80;89.00
18406;DHT22;9329;48.720;9.588;2022-07-18T00:40:03;18.80;87.70
18406;DHT22;9329;48.720;9.588;2022-07-18T00:42:30;18.30;88.20
18406;DHT22;9329;48.720;9.588;2022-07-18T00:44:57;18.30;90.20
18406;DHT22;9329;48.720;9.588;2022-07-18T00:47:24;18.10;90.10
18406;DHT22;9329;48.720;9.588;2022-07-18T00:49:53;17.90;90.50
18406;DHT22;9329;48.720;9.588;2022-07-18T00:52:20;18.20;90.80
18406;DHT22;9329;48.720;9.588;2022-07-18T00:54:47;18.10;90.50
18406;DHT22;9329;48.720;9.588;2022-07-18T00:57:14;17.90;90.90
18406;DHT22;9329;48.720;9.588;2022-07-18T00:59:41;18.00;91.40
18406;DHT22;9329;48.720;9.588;2022-07-18T01:04:54;17.70;92.30
18406;DHT22;9329;48.720;9.588;2022-07-18T01:07:21;18.10;91.70
18406;DHT22;9329;48.720;9.588;2022-07-18T01:09:48;17.80;92.20
18406;DHT22;9329;48.720;9.588;2022-07-18T01:12:15;17.90;92.30
18406;DHT22;9329;48.720;9.588;2022-07-18T01:14:45;17.40;93.10
18406;DHT22;9329;48.720;9.588;2022-07-18T01:17:14;17.10;93.40
18406;DHT22;9329;48.720;9.588;2022-07-18T01:19:41;17.00;94.20
18406;DHT22;9329;48.720;9.588;2022-07-18T01:22:10;17.40;94.30
18406;DHT22;9329;48.720;9.588;2022-07-18T01:24:38;16.90;94.90
18406;DHT22;9329;48.720;9.588;2022-07-18T01:27:05;17.00;95.40
18406;DHT22;9329;48.720;9.588;2022-07-18T01:29:33;17.00;95.30
18406;DHT22;9329;48.720;9.588;2022-07-18T01:32:04;17.00;95.60
18406;DHT22;9329;48.720;9.588;2022-07-18T01:34:31;16.90;96.20
18406;DHT22;9329;48.720;9.588;2022-07-18T01:36:58;16.70;96.60
18406;DHT22;9329;48.720;9.588;2022-07-18T01:39:27;16.50;97.40
18406;DHT22;9329;48.720;9.588;2022-07-18T01:41:55;16.30;98.20
18406;DHT22;9329;48.720;9.588;2022-07-18T01:44:22;16.40;98.70
18406;DHT22;9329;48.720;9.588;2022-07-18T01:46:50;16.50;99.10
18406;DHT22;9329;48.720;9.588;2022-07-18T01:49:17;16.30;99.50
18406;DHT22;9329;48.720;9.588;2022-07-18T01:51:45;16.50;99.70
18406;DHT22;9329;48.720;9.588;2022-07-18T01:54:12;16.60;99.60
18406;DHT22;9329;48.720;9.588;2022-07-18T01:56:41;16.60;99.60
18406;DHT22;9329;48.720;9.588;2022-07-18T01:59:08;16.60;99.60
18406;DHT22;9329;48.720;9.588;2022-07-18T02:01:35;16.70;99.60
18406;DHT22;9329;48.720;9.588;2022-07-18T02:04:02;17.00;99.90
18406;DHT22;9329;48.720;9.588;2022-07-18T02:06:29;16.80;99.90
18406;DHT22;9329;48.720;9.588;2022-07-18T02:08:56;16.70;99.90
18406;DHT22;9329;48.720;9.588;2022-07-18T02:11:23;16.60;99.90
18406;DHT22;9329;48.720;9.588;2022-07-18T02:13:52;16.40;99.90
18406;DHT22;9329;48.720;9.588;2022-07-18T02:16:19;16.30;99.90
18406;DHT22;9329;48.720;9.588;2022-07-18T02:18:46;15.90;99.90
18406;DHT22;9329;48.720;9.588;2022-07-18T02:21:13;15.70;99.90
18406;DHT22;9329;48.720;9.588;2022-07-18T02:23:40;15.60;99.90
18406;DHT22;9329;48.720;9.588;2022-07-18T02:26:07;15.80;99.90
18406;DHT22;9329;48.720;9.588;2022-07-18T02:28:35;16.10;99.90
18406;DHT22;9329;48.720;9.588;2022-07-18T02:31:04;16.10;99.90
18406;DHT22;9329;48.720;9.588;2022-07-18T02:33:32;16.20;99.90
18406;DHT22;9329;48.720;9.588;2022-07-18T02:35:59;16.30;99.90
18406;DHT22;9329;48.720;9.588;2022-07-18T02:38:26;16.20;99.90
18406;DHT22;9329;48.720;9.588;2022-07-18T02:40:53;16.30;99.90
18406;DHT22;9329;48.720;9.588;2022-07-18T02:43:20;16.40;99.90
18406;DHT22;9329;48.720;9.588;2022-07-18T02:45:47;16.00;99.90
18406;DHT22;9329;48.720;9.588;2022-07-18T02:48:16;16.10;99.90
18406;DHT22;9329;48.720;9.588;2022-07-18T02:50:43;16.10;99.90
18406;DHT22;9329;48.720;9.588;2022-07-18T02:53:10;15.80;99.90
18406;DHT22;9329;48.720;9.588;2022-07-18T02:55:37;15.70;99.90
18406;DHT22;9329;48.720;9.588;2022-07-18T02:58:04;16.00;99.90
18406;DHT22;9329;48.720;9.588;2022-07-18T03:00:31;15.60;99.90
18406;DHT22;9329;48.720;9.588;2022-07-18T03:02:58;15.50;99.90
18406;DHT22;9329;48.720;9.588;2022-07-18T03:05:26;15.40;99.90
18406;DHT22;9329;48.720;9.588;2022-07-18T03:07:53;15.20;99.90
18406;DHT22;9329;48.720;9.588;2022-07-18T03:10:20;15.30;99.90
18406;DHT22;9329;48.720;9.588;2022-07-18T03:12:47;15.90;99.90
18406;DHT22;9329;48.720;9.588;2022-07-18T03:15:14;16.10;99.90
18406;DHT22;9329;48.720;9.588;2022-07-18T03:17:41;16.30;99.90
18406;DHT22;9329;48.720;9.588;2022-07-18T03:20:09;16.40;99.90
18406;DHT22;9329;48.720;9.588;2022-07-18T03:22:38;16.40;99.90
18406;DHT22;9329;48.720;9.588;2022-07-18T03:25:05;16.50;99.90
18406;DHT22;9329;48.720;9.588;2022-07-18T03:27:32;16.00;99.90
18406;DHT22;9329;48.720;9.588;2022-07-18T03:29:59;15.90;99.90
18406;DHT22;9329;48.720;9.588;2022-07-18T03:32:26;16.20;99.90
18406;DHT22;9329;48.720;9.588;2022-07-18T03:34:53;16.30;99.90
18406;DHT22;9329;48.720;9.588;2022-07-18T03:37:20;16.50;99.90
18406;DHT22;9329;48.720;9.588;2022-07-18T03:39:49;16.20;99.90
18406;DHT22;9329;48.720;9.588;2022-07-18T03:42:16;15.60;99.90
18406;DHT22;9329;48.720;9.588;2022-07-18T03:44:43;15.30;99.90
18406;DHT22;9329;48.720;9.588;2022-07-18T03:47:11;15.70;99.90
18406;DHT22;9329;48.720;9.588;2022-07-18T03:49:38;15.80;99.90
18406;DHT22;9329;48.720;9.588;2022-07-18T03:52:05;15.80;99.90
18406;DHT22;9329;48.720;9.588;2022-07-18T03:54:32;16.40;99.90
18406;DHT22;9329;48.720;9.588;2022-07-18T03:57:01;16.60;99.90
18406;DHT22;9329;48.720;9.588;2022-07-18T03:59:28;15.90;99.90
18406;DHT22;9329;48.720;9.588;2022-07-18T04:01:55;15.80;99.90
18406;DHT22;9329;48.720;9.588;2022-07-18T04:04:22;16.10;99.90
18406;DHT22;9329;48.720;9.588;2022-07-18T04:06:49;15.50;99.90
18406;DHT22;9329;48.720;9.588;2022-07-18T04:09:16;15.30;99.90
18406;DHT22;9329;48.720;9.588;2022-07-18T04:11:43;15.80;99.90
18406;DHT22;9329;48.720;9.588;2022-07-18T04:14:11;15.90;99.90
18406;DHT22;9329;48.720;9.588;2022-07-18T04:16:38;15.60;99.90
18406;DHT22;9329;48.720;9.588;2022-07-18T04:19:05;15.80;99.90
18406;DHT22;9329;48.720;9.588;2022-07-18T04:21:32;15.80;99.90
18406;DHT22;9329;48.720;9.588;2022-07-18T04:23:59;15.90;99.90
18406;DHT22;9329;48.720;9.588;2022-07-18T04:26:26;15.90;99.90
18406;DHT22;9329;48.720;9.588;2022-07-18T04:28:53;16.10;99.90
18406;DHT22;9329;48.720;9.588;2022-07-18T04:31:22;16.40;99.90
18406;DHT22;9329;48.720;9.588;2022-07-18T04:33:49;16.10;99.90
18406;DHT22;9329;48.720;9.588;2022-07-18T04:36:16;16.50;99.90
18406;DHT22;9329;48.720;9.588;2022-07-18T04:38:44;16.40;99.90
18406;DHT22;9329;48.720;9.588;2022-07-18T04:41:11;16.40;99.90
18406;DHT22;9329;48.720;9.588;2022-07-18T04:43:38;15.80;99.90
18406;DHT22;9329;48.720;9.588;2022-07-18T04:46:05;16.00;99.90
18406;DHT22;9329;48.720;9.588;2022-07-18T04:48:33;16.00;99.90
18406;DHT22;9329;48.720;9.588;2022-07-18T04:51:00;16.60;99.90
18406;DHT22;9329;48.720;9.588;2022-07-18T04:53:27;16.90;99.90
18406;DHT22;9329;48.720;9.588;2022-07-18T04:55:54;16.60;99.90
18406;DHT22;9329;48.720;9.588;2022-07-18T04:58:21;16.90;99.90
18406;DHT22;9329;48.720;9.588;2022-07-18T05:00:48;16.80;99.90
18406;DHT22;9329;48.720;9.588;2022-07-18T05:03:16;17.20;99.90
18406;DHT22;9329;48.720;9.588;2022-07-18T05:05:44;16.80;99.90
18406;DHT22;9329;48.720;9.588;2022-07-18T05:08:11;17.10;99.90
18406;DHT22;9329;48.720;9.588;2022-07-18T05:10:40;17.40;99.90
18406;DHT22;9329;48.720;9.588;2022-07-18T05:13:07;17.50;99.90
18406;DHT22;9329;48.720;9.588;2022-07-18T05:15:34;17.30;99.90
18406;DHT22;9329;48.720;9.588;2022-07-18T05:18:01;17.30;99.90
18406;DHT22;9329;48.720;9.588;2022-07-18T05:20:28;17.70;99.90
18406;DHT22;9329;48.720;9.588;2022-07-18T05:22:56;18.10;99.90
18406;DHT22;9329;48.720;9.588;2022-07-18T05:25:24;18.10;99.90
18406;DHT22;9329;48.720;9.588;2022-07-18T05:27:51;17.90;99.90
18406;DHT22;9329;48.720;9.588;2022-07-18T05:30:19;18.40;99.90
18406;DHT22;9329;48.720;9.588;2022-07-18T05:32:46;18.50;99.90
18406;DHT22;9329;48.720;9.588;2022-07-18T05:35:14;18.40;99.90
18406;DHT22;9329;48.720;9.588;2022-07-18T05:37:41;18.20;99.90
18406;DHT22;9329;48.720;9.588;2022-07-18T05:40:12;18.10;99.90
18406;DHT22;9329;48.720;9.588;2022-07-18T05:42:39;18.00;99.90
18406;DHT22;9329;48.720;9.588;2022-07-18T05:45:08;18.30;99.90
18406;DHT22;9329;48.720;9.588;2022-07-18T05:47:35;18.80;99.90
18406;DHT22;9329;48.720;9.588;2022-07-18T05:50:03;18.80;99.90
18406;DHT22;9329;48.720;9.588;2022-07-18T05:52:31;18.70;99.90
18406;DHT22;9329;48.720;9.588;2022-07-18T05:54:58;18.80;99.90
18406;DHT22;9329;48.720;9.588;2022-07-18T05:57:27;18.50;99.90
18406;DHT22;9329;48.720;9.588;2022-07-18T05:59:54;18.80;99.90
18406;DHT22;9329;48.720;9.588;2022-07-18T06:02:21;18.90;99.90
18406;DHT22;9329;48.720;9.588;2022-07-18T06:04:48;19.00;99.90
18406;DHT22;9329;48.720;9.588;2022-07-18T06:07:15;19.10;99.90
18406;DHT22;9329;48.720;9.588;2022-07-18T06:09:42;19.40;99.90
18406;DHT22;9329;48.720;9.588;2022-07-18T06:12:09;19.60;99.90
18406;DHT22;9329;48.720;9.588;2022-07-18T06:14:38;19.60;99.90
18406;DHT22;9329;48.720;9.588;2022-07-18T06:17:05;19.60;99.90
18406;DHT22;9329;48.720;9.588;2022-07-18T06:19:32;19.80;99.90
18406;DHT22;9329;48.720;9.588;2022-07-18T06:21:59;20.10;99.90
18406;DHT22;9329;48.720;9.588;2022-07-18T06:24:26;20.00;99.90
18406;DHT22;9329;48.720;9.588;2022-07-18T06:26:53;20.20;99.50
18406;DHT22;9329;48.720;9.588;2022-07-18T06:29:20;20.30;99.10
18406;DHT22;9329;48.720;9.588;2022-07-18T06:31:48;20.80;98.50
18406;DHT22;9329;48.720;9.588;2022-07-18T06:34:15;20.90;98.10
18406;DHT22;9329;48.720;9.588;2022-07-18T06:36:42;20.80;98.20
18406;DHT22;9329;48.720;9.588;2022-07-18T06:39:09;20.90;98.20
18406;DHT22;9329;48.720;9.588;2022-07-18T06:41:38;21.00;97.20
18406;DHT22;9329;48.720;9.588;2022-07-18T06:44:12;20.90;97.20
18406;DHT22;9329;48.720;9.588;2022-07-18T06:46:39;21.30;96.20
18406;DHT22;9329;48.720;9.588;2022-07-18T06:49:08;21.40;94.50
18406;DHT22;9329;48.720;9.588;2022-07-18T06:51:35;21.30;95.20
18406;DHT22;9329;48.720;9.588;2022-07-18T06:54:02;21.40;93.70
18406;DHT22;9329;48.720;9.588;2022-07-18T06:56:29;21.70;92.00
18406;DHT22;9329;48.720;9.588;2022-07-18T06:58:56;21.80;92.90
18406;DHT22;9329;48.720;9.588;2022-07-18T07:01:23;21.90;92.90
18406;DHT22;9329;48.720;9.588;2022-07-18T07:03:51;21.90;93.00
18406;DHT22;9329;48.720;9.588;2022-07-18T07:06:19;22.10;93.10
18406;DHT22;9329;48.720;9.588;2022-07-18T07:08:46;22.50;91.10
18406;DHT22;9329;48.720;9.588;2022-07-18T07:11:13;22.60;90.80
18406;DHT22;9329;48.720;9.588;2022-07-18T07:13:41;22.70;90.70
18406;DHT22;9329;48.720;9.588;2022-07-18T07:16:08;22.70;89.10
18406;DHT22;9329;48.720;9.588;2022-07-18T07:18:35;22.90;86.80
18406;DHT22;9329;48.720;9.588;2022-07-18T07:21:02;23.00;87.40
18406;DHT22;9329;48.720;9.588;2022-07-18T07:23:30;23.00;87.80
18406;DHT22;9329;48.720;9.588;2022-07-18T07:25:57;23.10;85.00
18406;DHT22;9329;48.720;9.588;2022-07-18T07:28:24;23.40;79.80
18406;DHT22;9329;48.720;9.588;2022-07-18T07:30:52;23.50;81.80
18406;DHT22;9329;48.720;9.588;2022-07-18T07:33:18;23.50;78.70
18406;DHT22;9329;48.720;9.588;2022-07-18T07:35:46;23.50;79.70
18406;DHT22;9329;48.720;9.588;2022-07-18T07:38:13;23.70;78.80
18406;DHT22;9329;48.720;9.588;2022-07-18T07:40:45;23.90;77.40
18406;DHT22;9329;48.720;9.588;2022-07-18T07:43:15;24.30;75.80
18406;DHT22;9329;48.720;9.588;2022-07-18T07:45:45;24.80;72.00
18406;DHT22;9329;48.720;9.588;2022-07-18T07:48:12;24.40;74.50
18406;DHT22;9329;48.720;9.588;2022-07-18T07:50:39;24.20;76.30
18406;DHT22;9329;48.720;9.588;2022-07-18T07:53:06;24.40;75.30
18406;DHT22;9329;48.720;9.588;2022-07-18T07:55:34;24.40;75.40
18406;DHT22;9329;48.720;9.588;2022-07-18T07:58:02;24.80;71.40
18406;DHT22;9329;48.720;9.588;2022-07-18T08:00:31;25.30;70.90
18406;DHT22;9329;48.720;9.588;2022-07-18T08:03:00;25.30;69.00
18406;DHT22;9329;48.720;9.588;2022-07-18T08:05:28;25.30;70.50
18406;DHT22;9329;48.720;9.588;2022-07-18T08:07:56;25.30;71.90
18406;DHT22;9329;48.720;9.588;2022-07-18T08:10:23;25.30;71.70
18406;DHT22;9329;48.720;9.588;2022-07-18T08:12:50;25.60;72.00
18406;DHT22;9329;48.720;9.588;2022-07-18T08:15:19;26.00;70.60
18406;DHT22;9329;48.720;9.588;2022-07-18T08:17:46;26.00;70.10
18406;DHT22;9329;48.720;9.588;2022-07-18T08:20:13;25.80;70.80
18406;DHT22;9329;48.720;9.588;2022-07-18T08:22:55;26.00;70.40
18406;DHT22;9329;48.720;9.588;2022-07-18T08:25:23;26.30;69.00
18406;DHT22;9329;48.720;9.588;2022-07-18T08:27:51;26.50;69.80
18406;DHT22;9329;48.720;9.588;2022-07-18T08:30:20;26.60;67.80
18406;DHT22;9329;48.720;9.588;2022-07-18T08:32:47;26.70;67.70
18406;DHT22;9329;48.720;9.588;2022-07-18T08:35:15;26.70;69.20
18406;DHT22;9329;48.720;9.588;2022-07-18T08:37:42;26.90;69.80
18406;DHT22;9329;48.720;9.588;2022-07-18T08:40:12;27.20;68.20
18406;DHT22;9329;48.720;9.588;2022-07-18T08:42:39;27.20;66.40
18406;DHT22;9329;48.720;9.588;2022-07-18T08:45:07;27.50;67.40
18406;DHT22;9329;48.720;9.588;2022-07-18T08:47:36;27.50;66.50
18406;DHT22;9329;48.720;9.588;2022-07-18T08:50:04;27.70;64.80
18406;DHT22;9329;48.720;9.588;2022-07-18T08:52:32;27.70;64.70
18406;DHT22;9329;48.720;9.588;2022-07-18T08:55:01;27.70;63.80
18406;DHT22;9329;48.720;9.588;2022-07-18T08:57:29;28.00;62.50
18406;DHT22;9329;48.720;9.588;2022-07-18T08:59:56;28.20;60.60
18406;DHT22;9329;48.720;9.588;2022-07-18T09:02:24;28.20;59.40
18406;DHT22;9329;48.720;9.588;2022-07-18T09:04:53;28.40;59.90
18406;DHT22;9329;48.720;9.588;2022-07-18T09:07:25;28.10;59.60
18406;DHT22;9329;48.720;9.588;2022-07-18T09:09:56;28.30;59.30
18406;DHT22;9329;48.720;9.588;2022-07-18T09:12:25;28.50;58.50
18406;DHT22;9329;48.720;9.588;2022-07-18T09:14:52;29.00;58.70
18406;DHT22;9329;48.720;9.588;2022-07-18T09:17:22;29.10;57.50
18406;DHT22;9329;48.720;9.588;2022-07-18T09:20:02;29.30;57.00
18406;DHT22;9329;48.720;9.588;2022-07-18T09:22:31;29.40;56.50
18406;DHT22;9329;48.720;9.588;2022-07-18T09:25:01;29.30;53.10
18406;DHT22;9329;48.720;9.588;2022-07-18T09:27:31;29.60;56.10
18406;DHT22;9329;48.720;9.588;2022-07-18T09:30:18;29.70;54.10
18406;DHT22;9329;48.720;9.588;2022-07-18T09:32:47;29.40;53.90
18406;DHT22;9329;48.720;9.588;2022-07-18T09:35:20;29.40;54.00
18406;DHT22;9329;48.720;9.588;2022-07-18T09:37:59;29.70;50.50
18406;DHT22;9329;48.720;9.588;2022-07-18T09:40:29;29.90;52.70
18406;DHT22;9329;48.720;9.588;2022-07-18T09:42:57;30.00;50.90
18406;DHT22;9329;48.720;9.588;2022-07-18T09:45:29;30.10;49.30
18406;DHT22;9329;48.720;9.588;2022-07-18T09:47:57;30.40;49.10
18406;DHT22;9329;48.720;9.588;2022-07-18T09:50:29;30.20;50.30
18406;DHT22;9329;48.720;9.588;2022-07-18T09:53:09;30.00;50.30
18406;DHT22;9329;48.720;9.588;2022-07-18T09:55:42;30.40;49.20
18406;DHT22;9329;48.720;9.588;2022-07-18T09:58:09;30.60;48.30
18406;DHT22;9329;48.720;9.588;2022-07-18T10:00:38;30.40;46.90
18406;DHT22;9329;48.720;9.588;2022-07-18T10:03:06;30.10;46.20
18406;DHT22;9329;48.720;9.588;2022-07-18T10:05:35;29.90;49.20
18406;DHT22;9329;48.720;9.588;2022-07-18T10:08:06;30.10;47.10
18406;DHT22;9329;48.720;9.588;2022-07-18T10:10:33;30.60;45.80
18406;DHT22;9329;48.720;9.588;2022-07-18T10:13:02;30.60;46.90
18406;DHT22;9329;48.720;9.588;2022-07-18T10:15:31;30.70;47.50
18406;DHT22;9329;48.720;9.588;2022-07-18T10:18:00;30.70;49.80
18406;DHT22;9329;48.720;9.588;2022-07-18T10:20:30;30.50;49.90
18406;DHT22;9329;48.720;9.588;2022-07-18T10:23:05;30.60;49.30
18406;DHT22;9329;48.720;9.588;2022-07-18T10:25:33;30.50;47.80
18406;DHT22;9329;48.720;9.588;2022-07-18T10:28:06;30.40;47.40
18406;DHT22;9329;48.720;9.588;2022-07-18T10:30:36;30.70;46.70
18406;DHT22;9329;48.720;9.588;2022-07-18T10:33:04;31.00;45.10
18406;DHT22;9329;48.720;9.588;2022-07-18T10:36:00;31.20;46.50
18406;DHT22;9329;48.720;9.588;2022-07-18T10:38:28;31.30;47.40
18406;DHT22;9329;48.720;9.588;2022-07-18T10:41:07;31.40;45.40
18406;DHT22;9329;48.720;9.588;2022-07-18T10:43:44;31.60;43.70
18406;DHT22;9329;48.720;9.588;2022-07-18T10:46:12;31.60;44.80
18406;DHT22;9329;48.720;9.588;2022-07-18T10:48:54;31.90;45.00
18406;DHT22;9329;48.720;9.588;2022-07-18T10:51:34;32.00;42.50
18406;DHT22;9329;48.720;9.588;2022-07-18T10:54:10;32.00;43.30
18406;DHT22;9329;48.720;9.588;2022-07-18T10:57:10;32.10;42.90
18406;DHT22;9329;48.720;9.588;2022-07-18T11:00:00;32.00;46.30
18406;DHT22;9329;48.720;9.588;2022-07-18T11:02:32;31.70;45.80
18406;DHT22;9329;48.720;9.588;2022-07-18T11:04:59;31.90;44.00
18406;DHT22;9329;48.720;9.588;2022-07-18T11:07:27;32.10;45.40
18406;DHT22;9329;48.720;9.588;2022-07-18T11:09:55;32.30;44.70
18406;DHT22;9329;48.720;9.588;2022-07-18T11:12:24;32.50;43.50
18406;DHT22;9329;48.720;9.588;2022-07-18T11:15:13;32.70;44.60
18406;DHT22;9329;48.720;9.588;2022-07-18T11:18:03;32.50;45.00
18406;DHT22;9329;48.720;9.588;2022-07-18T11:20:36;32.90;44.60
18406;DHT22;9329;48.720;9.588;2022-07-18T11:23:13;32.60;41.50
18406;DHT22;9329;48.720;9.588;2022-07-18T11:25:42;32.10;40.10
18406;DHT22;9329;48.720;9.588;2022-07-18T11:28:09;32.10;41.40
18406;DHT22;9329;48.720;9.588;2022-07-18T11:30:37;32.20;40.90
18406;DHT22;9329;48.720;9.588;2022-07-18T11:33:05;32.40;43.30
18406;DHT22;9329;48.720;9.588;2022-07-18T11:35:33;32.30;42.10
18406;DHT22;9329;48.720;9.588;2022-07-18T11:38:04;32.30;39.70
18406;DHT22;9329;48.720;9.588;2022-07-18T11:40:31;32.30;40.00
18406;DHT22;9329;48.720;9.588;2022-07-18T11:43:00;32.30;41.10
18406;DHT22;9329;48.720;9.588;2022-07-18T11:45:27;32.30;40.80
18406;DHT22;9329;48.720;9.588;2022-07-18T11:47:54;32.60;41.80
18406;DHT22;9329;48.720;9.588;2022-07-18T11:50:34;32.90;39.10
18406;DHT22;9329;48.720;9.588;2022-07-18T11:53:02;32.90;40.10
18406;DHT22;9329;48.720;9.588;2022-07-18T11:55:33;33.00;39.70
18406;DHT22;9329;48.720;9.588;2022-07-18T11:58:07;33.10;40.40
18406;DHT22;9329;48.720;9.588;2022-07-18T12:00:35;32.80;38.00
18406;DHT22;9329;48.720;9.588;2022-07-18T12:03:07;32.90;39.40
18406;DHT22;9329;48.720;9.588;2022-07-18T12:05:36;32.70;38.00
18406;DHT22;9329;48.720;9.588;2022-07-18T12:08:28;32.90;37.90
18406;DHT22;9329;48.720;9.588;2022-07-18T12:11:13;32.80;38.70
18406;DHT22;9329;48.720;9.588;2022-07-18T12:13:47;33.20;37.80
18406;DHT22;9329;48.720;9.588;2022-07-18T12:16:30;33.60;40.40
18406;DHT22;9329;48.720;9.588;2022-07-18T12:18:58;34.00;40.60
18406;DHT22;9329;48.720;9.588;2022-07-18T12:21:42;34.50;40.60
18406;DHT22;9329;48.720;9.588;2022-07-18T12:24:30;35.30;37.60
18406;DHT22;9329;48.720;9.588;2022-07-18T12:27:15;36.50;35.10
18406;DHT22;9329;48.720;9.588;2022-07-18T12:30:06;37.90;35.30
18406;DHT22;9329;48.720;9.588;2022-07-18T12:32:43;39.80;32.50
18406;DHT22;9329;48.720;9.588;2022-07-18T12:35:12;42.40;30.10
18406;DHT22;9329;48.720;9.588;2022-07-18T12:37:39;44.20;29.10
18406;DHT22;9329;48.720;9.588;2022-07-18T12:40:09;45.00;26.00
18406;DHT22;9329;48.720;9.588;2022-07-18T12:42:38;45.30;25.30
18406;DHT22;9329;48.720;9.588;2022-07-18T12:45:08;45.20;25.20
18406;DHT22;9329;48.720;9.588;2022-07-18T12:47:35;45.80;24.20
18406;DHT22;9329;48.720;9.588;2022-07-18T12:50:03;46.70;24.90
18406;DHT22;9329;48.720;9.588;2022-07-18T12:52:30;46.60;22.90
18406;DHT22;9329;48.720;9.588;2022-07-18T12:54:58;46.00;24.20
18406;DHT22;9329;48.720;9.588;2022-07-18T12:57:28;46.20;22.80
18406;DHT22;9329;48.720;9.588;2022-07-18T12:59:55;47.20;24.40
18406;DHT22;9329;48.720;9.588;2022-07-18T13:02:23;47.90;21.70
18406;DHT22;9329;48.720;9.588;2022-07-18T13:04:50;47.40;22.50
18406;DHT22;9329;48.720;9.588;2022-07-18T13:07:17;48.60;23.90
18406;DHT22;9329;48.720;9.588;2022-07-18T13:09:44;49.10;21.30
18406;DHT22;9329;48.720;9.588;2022-07-18T13:12:12;49.90;22.70
18406;DHT22;9329;48.720;9.588;2022-07-18T13:14:39;50.20;22.00
18406;DHT22;9329;48.720;9.588;2022-07-18T13:17:06;50.70;20.10
18406;DHT22;9329;48.720;9.588;2022-07-18T13:19:35;50.50;20.50
18406;DHT22;9329;48.720;9.588;2022-07-18T13:22:02;50.90;19.60
18406;DHT22;9329;48.720;9.588;2022-07-18T13:24:29;51.80;21.40
18406;DHT22;9329;48.720;9.588;2022-07-18T13:26:56;52.50;21.50
18406;DHT22;9329;48.720;9.588;2022-07-18T13:29:23;53.30;20.00
18406;DHT22;9329;48.720;9.588;2022-07-18T13:31:50;52.30;20.70
18406;DHT22;9329;48.720;9.588;2022-07-18T13:34:18;52.60;21.40
18406;DHT22;9329;48.720;9.588;2022-07-18T13:36:52;52.50;20.80
18406;DHT22;9329;48.720;9.588;2022-07-18T13:39:21;51.30;18.90
18406;DHT22;9329;48.720;9.588;2022-07-18T13:41:48;51.60;20.90
18406;DHT22;9329;48.720;9.588;2022-07-18T13:44:16;52.70;20.80
18406;DHT22;9329;48.720;9.588;2022-07-18T13:46:43;52.20;18.70
18406;DHT22;9329;48.720;9.588;2022-07-18T13:49:11;52.40;19.50
18406;DHT22;9329;48.720;9.588;2022-07-18T13:51:38;52.00;19.30
18406;DHT22;9329;48.720;9.588;2022-07-18T13:54:07;52.10;20.20
18406;DHT22;9329;48.720;9.588;2022-07-18T13:56:34;52.40;18.90
18406;DHT22;9329;48.720;9.588;2022-07-18T13:59:01;53.20;17.20
18406;DHT22;9329;48.720;9.588;2022-07-18T14:01:28;53.30;17.80
18406;DHT22;9329;48.720;9.588;2022-07-18T14:03:55;53.60;18.10
18406;DHT22;9329;48.720;9.588;2022-07-18T14:06:23;52.40;19.20
18406;DHT22;9329;48.720;9.588;2022-07-18T14:08:50;52.50;18.30
18406;DHT22;9329;48.720;9.588;2022-07-18T14:11:19;52.30;17.80
18406;DHT22;9329;48.720;9.588;2022-07-18T14:13:46;52.60;19.70
18406;DHT22;9329;48.720;9.588;2022-07-18T14:16:14;54.20;18.90
18406;DHT22;9329;48.720;9.588;2022-07-18T14:18:41;54.00;20.20
18406;DHT22;9329;48.720;9.588;2022-07-18T14:21:08;54.20;17.70
18406;DHT22;9329;48.720;9.588;2022-07-18T14:23:35;52.80;18.00
18406;DHT22;9329;48.720;9.588;2022-07-18T14:26:02;52.60;18.10
18406;DHT22;9329;48.720;9.588;2022-07-18T14:28:31;52.10;18.40
18406;DHT22;9329;48.720;9.588;2022-07-18T14:30:58;51.90;18.20
18406;DHT22;9329;48.720;9.588;2022-07-18T14:33:25;51.10;19.10
18406;DHT22;9329;48.720;9.588;2022-07-18T14:35:52;51.50;19.60
18406;DHT22;9329;48.720;9.588;2022-07-18T14:38:19;51.80;19.50
18406;DHT22;9329;48.720;9.588;2022-07-18T14:40:46;52.50;20.10
18406;DHT22;9329;48.720;9.588;2022-07-18T14:43:13;53.50;19.10
18406;DHT22;9329;48.720;9.588;2022-07-18T14:45:43;54.00;19.50
18406;DHT22;9329;48.720;9.588;2022-07-18T14:48:10;53.40;18.50
18406;DHT22;9329;48.720;9.588;2022-07-18T14:50:37;54.00;19.70
18406;DHT22;9329;48.720;9.588;2022-07-18T14:53:04;54.60;19.50
18406;DHT22;9329;48.720;9.588;2022-07-18T14:55:31;54.80;19.50
18406;DHT22;9329;48.720;9.588;2022-07-18T14:57:58;55.60;17.40
18406;DHT22;9329;48.720;9.588;2022-07-18T15:00:26;55.60;18.30
18406;DHT22;9329;48.720;9.588;2022-07-18T15:02:54;54.70;19.30
18406;DHT22;9329;48.720;9.588;2022-07-18T15:05:21;54.30;18.10
18406;DHT22;9329;48.720;9.588;2022-07-18T15:07:48;54.40;19.50
18406;DHT22;9329;48.720;9.588;2022-07-18T15:10:15;54.00;18.40
18406;DHT22;9329;48.720;9.588;2022-07-18T15:12:42;53.80;19.40
18406;DHT22;9329;48.720;9.588;2022-07-18T15:15:10;53.20;17.80
18406;DHT22;9329;48.720;9.588;2022-07-18T15:17:37;53.50;18.90
18406;DHT22;9329;48.720;9.588;2022-07-18T15:20:06;53.50;17.80
18406;DHT22;9329;48.720;9.588;2022-07-18T15:22:34;53.10;17.90
18406;DHT22;9329;48.720;9.588;2022-07-18T15:25:01;53.20;18.50
18406;DHT22;9329;48.720;9.588;2022-07-18T15:27:28;53.20;17.50
18406;DHT22;9329;48.720;9.588;2022-07-18T15:29:56;52.50;17.80
18406;DHT22;9329;48.720;9.588;2022-07-18T15:32:23;51.60;17.90
18406;DHT22;9329;48.720;9.588;2022-07-18T15:34:54;52.70;18.60
18406;DHT22;9329;48.720;9.588;2022-07-18T15:37:22;52.80;19.30
18406;DHT22;9329;48.720;9.588;2022-07-18T15:39:49;51.80;17.80
18406;DHT22;9329;48.720;9.588;2022-07-18T15:42:16;52.90;18.20
18406;DHT22;9329;48.720;9.588;2022-07-18T15:44:43;51.80;17.60
18406;DHT22;9329;48.720;9.588;2022-07-18T15:47:10;52.50;19.40
18406;DHT22;9329;48.720;9.588;2022-07-18T15:49:38;53.30;18.50
18406;DHT22;9329;48.720;9.588;2022-07-18T15:52:06;52.90;18.70
18406;DHT22;9329;48.720;9.588;2022-07-18T15:54:35;52.70;19.80
18406;DHT22;9329;48.720;9.588;2022-07-18T15:57:02;50.70;18.40